Terminal Aerodrome Forecast
Issued by NWS Greer, SC

Home | Current Version | Previous Version | Text Only | Print | Product List | Glossary On
Versions: 1 2 3 4 5 6 7 8 9 10 11 12 13 14 15 16 17 18 19 20 21 22 23 24 25 26 27 28 29 30 31 32 33 34 35 36 37 38 39 40 41 42 43 44 45 46 47 48 49 50
000
FTUS42 KGSP 240152 AAA
TAFCLT
TAF AMD
KCLT 240152Z 2402/2424 19005KT P6SM SCT030 BKN090
      TEMPO 2402/2405 SCT008 BKN014
     FM240500 24004KT 4SM BR OVC008
     FM240700 16003KT 3SM BR VCSH OVC003
     FM241500 15006KT P6SM VCTS OVC008CB
     FM241800 17010KT P6SM BKN015 PROB30 2418/2424 4SM TSRA
      OVC010CB=

USA.gov is the U.S. government's official web portal to all federal, state and local government web resources and services.